Airport View

Enter AWOS ICAO identifier for current METAR.

ex. KFNL

KCIU 202256Z AUTO 12006KT 10SM OVC110 04/M02 A3026 RMK AO2 SLP255 T00441017

20 Oct 2020 23:00

Frequency: 127.575

Phone: 906-495-7134

Other Area AWOS: CYAM - KANJ - KMCD - KDRM

TAF CYAM 201938Z 2020/2108 07005KT P6SM BKN050 FM210000 10010G20KT P6SM OVC060 TEMPO 2100/2104 5SM -SHRASN BR BKN020 OVC040 FM210400 11012G22KT 6SM -RA BR SCT005 OVC015 TEMPO 2104/2106 2SM -RA BR OVC005 FM210600 11012G22KT 2SM -RA BR OVC005 RMK NXT FCST BY 210200Z